FYKT/KMP METAR and TAF weather

Enter ICAO airport designator
Station Type Date Time Source
FYKT METAR 2021/08/01 17:00 UTC NOAA

FYKT 011700Z AUTO 01004KT //// // ////// 19/M06 Q1028


Station Type Date Time Source
FYKT Decoded METAR 2021/08/01 17:00 UTC NOAA

Keetmanshoop, Namibia (FYKT) 26-32S 018-07E 1100M
Aug 01, 2021 - 01:00 PM EDT / 2021.08.01 1700 UTC
Wind: from the N (010 degrees) at 5 MPH (4 KT):0
Temperature: 66 F (19 C)
Dew Point: 21 F (-6 C)
Relative Humidity: 17%
Pressure (altimeter): 30.36 in. Hg (1028 hPa)
ob: FYKT 011700Z AUTO 01004KT //// // ////// 19/M06 Q1028
cycle: 17

Station Type Date Time Source
FYKT TAF 2021/08/01 18:00 UTC NOAA

TAF FYKT 011600Z 0118/0218 03007KT CAVOK

Example: see airport list